Time;durP1;ratioP1;P1;durP2;ratioP2;P2;SDS_P1;SDS_P2;PMS_P1;PMS_P2;Temp;Humidity;BMP_temperature;BMP_pressure;BME280_temperature;BME280_humidity;BME280_pressure;Samples;Min_cycle;Max_cycle;Signal;HPM_P1;HPM_P2
2021/08/09 00:00:32;;;;;;;16.55;2.80;;;15.70;99.90;;;;;;4165145;28;20179;-85
2021/08/09 00:02:32;;;;;;;12.82;2.40;;;15.70;99.90;;;;;;4165262;28;20191;-86
2021/08/09 00:04:35;;;;;;;12.73;2.45;;;15.60;99.90;;;;;;4148986;28;20716;-86
2021/08/09 00:06:36;;;;;;;14.30;2.05;;;15.60;99.90;;;;;;4181490;28;20266;-85
2021/08/09 00:08:37;;;;;;;14.80;2.35;;;15.60;99.90;;;;;;4148652;28;20192;-86
2021/08/09 00:10:38;;;;;;;20.35;2.50;;;15.60;99.90;;;;;;4165181;28;20222;-86
2021/08/09 00:12:38;;;;;;;17.63;2.30;;;15.60;99.90;;;;;;4164791;28;20262;-85
2021/08/09 00:14:39;;;;;;;14.73;2.30;;;15.60;99.90;;;;;;4164915;28;20179;-85
2021/08/09 00:16:40;;;;;;;14.48;2.00;;;15.60;99.90;;;;;;4148737;28;20660;-85
2021/08/09 00:18:45;;;;;;;14.55;2.58;;;15.60;99.90;;;;;;4165017;28;20174;-85
2021/08/09 00:20:46;;;;;;;9.60;2.25;;;15.70;99.90;;;;;;4148495;28;20633;-85
2021/08/09 00:22:47;;;;;;;13.02;2.00;;;15.70;99.90;;;;;;4148275;28;20191;-85
2021/08/09 00:24:48;;;;;;;18.63;2.47;;;15.80;99.90;;;;;;4148434;28;20177;-85
2021/08/09 00:26:48;;;;;;;16.67;2.40;;;15.70;99.90;;;;;;4164744;28;20529;-85
2021/08/09 00:28:50;;;;;;;14.95;2.50;;;15.70;99.90;;;;;;4148409;28;20169;-85
2021/08/09 00:30:51;;;;;;;17.30;2.20;;;15.70;99.90;;;;;;4164719;28;20746;-85
2021/08/09 00:32:52;;;;;;;16.23;2.78;;;15.70;99.90;;;;;;4148185;28;20177;-88
2021/08/09 00:34:53;;;;;;;14.18;2.20;;;15.60;99.90;;;;;;4164689;28;20293;-85
2021/08/09 00:36:54;;;;;;;11.98;2.08;;;15.70;99.90;;;;;;4148369;28;20168;-85
2021/08/09 00:38:55;;;;;;;15.25;2.05;;;15.70;99.90;;;;;;4148490;28;20180;-85
2021/08/09 00:40:56;;;;;;;11.48;2.30;;;15.80;99.90;;;;;;4148329;28;20169;-85
2021/08/09 00:42:57;;;;;;;14.63;1.95;;;15.70;99.90;;;;;;4148300;28;20177;-85
2021/08/09 00:44:58;;;;;;;12.80;2.00;;;15.70;99.90;;;;;;4148134;28;20172;-85
2021/08/09 00:46:59;;;;;;;12.35;1.90;;;15.70;99.90;;;;;;4148063;28;20168;-86
2021/08/09 00:49:00;;;;;;;17.60;2.20;;;15.70;99.90;;;;;;4148369;28;20301;-85
2021/08/09 00:51:07;;;;;;;14.13;2.00;;;15.70;99.90;;;;;;4164633;28;20223;-89
2021/08/09 00:53:08;;;;;;;14.52;2.45;;;15.80;99.90;;;;;;4147938;28;20169;-86
2021/08/09 00:55:12;;;;;;;14.73;2.42;;;15.80;99.90;;;;;;4148037;28;20199;-85
2021/08/09 00:57:13;;;;;;;15.43;2.75;;;15.80;99.90;;;;;;4164161;28;20588;-85
2021/08/09 00:59:16;;;;;;;14.85;2.70;;;15.60;99.90;;;;;;4164146;28;20267;-85
2021/08/09 01:01:17;;;;;;;10.57;1.90;;;15.50;99.90;;;;;;4180565;28;20171;-85
2021/08/09 01:03:22;;;;;;;14.40;2.38;;;15.60;99.90;;;;;;4148785;28;20183;-88
2021/08/09 01:05:23;;;;;;;10.45;1.90;;;15.60;99.90;;;;;;4147660;28;20689;-86
2021/08/09 01:07:35;;;;;;;14.15;2.22;;;15.60;99.90;;;;;;4148195;28;20664;-86
2021/08/09 01:09:57;;;;;;;14.52;2.13;;;15.60;99.90;;;;;;4164363;28;20176;-85
2021/08/09 01:12:03;;;;;;;11.52;2.88;;;15.60;99.90;;;;;;4164408;28;20259;-85
2021/08/09 01:14:19;;;;;;;6.85;1.98;;;15.60;99.90;;;;;;4164309;28;20237;-85
2021/08/09 01:16:35;;;;;;;18.55;2.38;;;15.70;99.90;;;;;;4164079;28;20740;-86
2021/08/09 01:18:39;;;;;;;13.48;2.55;;;15.70;99.90;;;;;;4164053;28;20164;-85
2021/08/09 01:20:46;;;;;;;21.65;2.28;;;15.70;99.90;;;;;;4164436;28;20207;-85
2021/08/09 01:23:08;;;;;;;16.23;2.50;;;15.80;99.90;;;;;;4147871;28;20171;-85
2021/08/09 01:25:37;;;;;;;14.68;2.78;;;15.80;99.90;;;;;;4164515;28;20712;-85
2021/08/09 01:27:41;;;;;;;15.07;2.75;;;15.90;99.90;;;;;;4148118;28;20268;-86
2021/08/09 01:29:46;;;;;;;10.90;2.20;;;16.00;99.90;;;;;;4148034;28;20533;-85
2021/08/09 01:31:50;;;;;;;16.83;2.50;;;16.00;99.90;;;;;;4163631;28;20214;-86
2021/08/09 01:33:56;;;;;;;12.02;2.30;;;16.00;99.90;;;;;;4164096;28;20207;-85
2021/08/09 01:35:58;;;;;;;14.07;2.67;;;16.00;99.90;;;;;;4164143;28;20294;-85
2021/08/09 01:38:03;;;;;;;15.02;2.55;;;16.10;99.90;;;;;;4164032;28;20165;-85
2021/08/09 01:40:09;;;;;;;17.98;2.72;;;16.20;99.90;;;;;;4163943;28;20191;-85
2021/08/09 01:42:13;;;;;;;13.15;2.10;;;16.20;99.90;;;;;;4164102;28;20652;-84
2021/08/09 01:44:16;;;;;;;14.07;2.38;;;16.30;99.90;;;;;;4163974;28;20168;-86
2021/08/09 01:46:18;;;;;;;12.02;3.08;;;16.30;99.90;;;;;;4163998;28;20196;-85
2021/08/09 01:48:19;;;;;;;11.98;2.75;;;16.30;99.90;;;;;;4147667;28;20241;-86
2021/08/09 01:50:21;;;;;;;12.10;2.15;;;16.30;99.90;;;;;;4147593;28;20169;-85
2021/08/09 01:52:24;;;;;;;16.65;2.28;;;16.20;99.90;;;;;;4147318;28;20236;-85
2021/08/09 01:54:26;;;;;;;17.90;2.65;;;16.20;99.90;;;;;;4163666;28;20172;-86
2021/08/09 01:56:28;;;;;;;18.95;2.92;;;16.20;99.90;;;;;;4163828;28;20202;-86
2021/08/09 01:58:28;;;;;;;15.75;2.42;;;16.30;99.90;;;;;;4163919;28;20175;-86
2021/08/09 02:00:30;;;;;;;12.30;2.70;;;16.20;99.90;;;;;;4163828;28;20712;-86
2021/08/09 02:02:32;;;;;;;13.18;2.47;;;16.30;99.90;;;;;;4164050;28;20164;-85
2021/08/09 02:04:33;;;;;;;15.27;2.42;;;16.30;99.90;;;;;;4163942;28;20172;-85
2021/08/09 02:06:34;;;;;;;11.48;2.10;;;16.30;99.90;;;;;;4147339;28;20185;-85
2021/08/09 02:08:37;;;;;;;15.27;2.72;;;16.30;99.90;;;;;;4163973;28;20184;-86
2021/08/09 02:10:39;;;;;;;13.25;2.55;;;16.20;99.90;;;;;;4164011;28;20173;-85
2021/08/09 02:13:17;;;;;;;11.20;2.28;;;16.00;99.90;;;;;;4147988;28;20219;-85
2021/08/09 02:15:26;;;;;;;11.77;2.60;;;16.00;99.90;;;;;;4163605;28;20200;-84
2021/08/09 02:17:42;;;;;;;15.35;2.42;;;16.00;99.90;;;;;;4165597;28;20266;-85
2021/08/09 02:20:01;;;;;;;9.75;2.25;;;15.80;99.90;;;;;;4183377;28;20167;-86
2021/08/09 02:22:07;;;;;;;16.98;2.60;;;15.80;99.90;;;;;;4150285;28;20179;-85
2021/08/09 02:24:13;;;;;;;12.50;2.30;;;15.70;99.90;;;;;;4167902;28;20627;-86
2021/08/09 02:26:36;;;;;;;13.10;2.25;;;15.70;99.90;;;;;;4166738;28;20188;-85
2021/08/09 02:28:44;;;;;;;14.10;2.03;;;15.80;99.90;;;;;;4167193;28;20259;-85
2021/08/09 02:30:51;;;;;;;12.25;2.17;;;15.70;99.90;;;;;;4166378;28;20305;-85
2021/08/09 02:32:54;;;;;;;13.13;2.10;;;15.70;99.90;;;;;;4183019;28;20179;-85
2021/08/09 02:34:56;;;;;;;14.40;2.30;;;15.70;99.90;;;;;;4150308;28;20262;-85
2021/08/09 02:36:57;;;;;;;10.18;2.55;;;15.70;99.90;;;;;;4166462;28;20262;-85
2021/08/09 02:38:59;;;;;;;15.18;2.40;;;15.70;99.90;;;;;;4166452;28;20164;-85
2021/08/09 02:41:01;;;;;;;15.82;2.45;;;15.70;99.90;;;;;;4182877;28;20230;-86
2021/08/09 02:43:03;;;;;;;8.85;2.33;;;15.70;99.90;;;;;;4150131;28;20264;-86
2021/08/09 02:45:04;;;;;;;11.57;2.10;;;15.70;99.90;;;;;;4149731;28;20195;-85
2021/08/09 02:47:07;;;;;;;6.82;2.15;;;15.70;99.90;;;;;;4166284;28;20223;-85
2021/08/09 02:49:11;;;;;;;17.05;2.13;;;15.70;99.90;;;;;;4166434;28;20183;-85
2021/08/09 02:51:17;;;;;;;9.60;1.80;;;15.70;99.90;;;;;;4166409;28;20704;-86
2021/08/09 02:53:19;;;;;;;10.93;2.30;;;15.80;99.90;;;;;;4166183;28;20199;-85
2021/08/09 02:55:22;;;;;;;11.68;2.20;;;15.90;99.90;;;;;;4166179;28;20184;-85
2021/08/09 02:57:27;;;;;;;8.23;2.13;;;16.00;99.90;;;;;;4149703;28;20177;-85
2021/08/09 02:59:28;;;;;;;10.90;1.90;;;16.00;99.90;;;;;;4167120;28;20172;-85
2021/08/09 03:01:31;;;;;;;7.55;1.90;;;15.90;99.90;;;;;;4166049;28;20621;-85
2021/08/09 03:03:35;;;;;;;9.82;1.95;;;15.90;99.90;;;;;;4149613;28;20267;-86
2021/08/09 03:05:38;;;;;;;7.53;1.77;;;16.00;99.90;;;;;;4166047;28;20188;-86
2021/08/09 03:07:41;;;;;;;10.70;1.95;;;16.10;99.90;;;;;;4165695;28;20180;-86
2021/08/09 03:09:42;;;;;;;16.10;2.13;;;16.10;99.90;;;;;;4166065;28;20199;-85
2021/08/09 03:11:43;;;;;;;10.48;2.00;;;16.10;99.90;;;;;;4165899;28;20211;-86
2021/08/09 03:13:46;;;;;;;7.32;1.70;;;16.10;99.90;;;;;;4149525;28;20175;-85
2021/08/09 03:15:48;;;;;;;12.10;2.28;;;16.10;99.90;;;;;;4166929;28;20274;-86
2021/08/09 03:17:48;;;;;;;8.18;1.80;;;16.10;99.90;;;;;;4149277;28;20172;-85
2021/08/09 03:19:49;;;;;;;11.80;1.75;;;16.10;99.90;;;;;;4165866;28;20271;-85
2021/08/09 03:22:00;;;;;;;14.38;2.25;;;16.00;99.90;;;;;;4149493;28;20212;-85
2021/08/09 03:24:02;;;;;;;10.93;1.80;;;16.10;99.90;;;;;;4149524;28;20199;-85
2021/08/09 03:26:03;;;;;;;17.00;2.35;;;16.00;99.90;;;;;;4149171;28;20201;-85
2021/08/09 03:28:06;;;;;;;10.82;1.92;;;16.10;99.90;;;;;;4165389;28;20171;-85
2021/08/09 03:30:09;;;;;;;10.40;2.00;;;16.10;99.90;;;;;;4149320;28;20585;-85
2021/08/09 03:32:10;;;;;;;11.38;2.03;;;16.10;99.90;;;;;;4149223;28;20204;-85
2021/08/09 03:34:10;;;;;;;9.25;1.83;;;16.20;99.90;;;;;;4165477;28;20171;-86
2021/08/09 03:36:11;;;;;;;6.50;1.90;;;16.10;99.90;;;;;;4149232;28;20220;-86
2021/08/09 03:38:12;;;;;;;9.95;2.22;;;16.10;99.90;;;;;;4165192;28;20235;-85
2021/08/09 03:40:14;;;;;;;9.90;2.30;;;16.10;99.90;;;;;;4165919;28;20184;-86
2021/08/09 03:42:15;;;;;;;9.43;1.80;;;16.00;99.90;;;;;;4165553;28;20176;-86
2021/08/09 03:44:16;;;;;;;8.70;2.20;;;16.00;99.90;;;;;;4165497;28;20164;-86
2021/08/09 03:46:17;;;;;;;7.93;1.80;;;15.90;99.90;;;;;;4165372;28;20537;-85
2021/08/09 03:48:19;;;;;;;6.32;1.90;;;15.90;99.90;;;;;;4149008;28;20176;-85
2021/08/09 03:50:20;;;;;;;10.88;2.03;;;15.90;99.90;;;;;;4149199;28;20176;-86
2021/08/09 03:52:20;;;;;;;8.68;2.08;;;15.90;99.90;;;;;;4148739;28;20273;-85
2021/08/09 03:54:21;;;;;;;10.18;2.30;;;15.80;99.90;;;;;;4149157;28;20165;-86
2021/08/09 03:56:22;;;;;;;9.15;2.13;;;15.80;99.90;;;;;;4148673;28;20257;-86
2021/08/09 03:58:22;;;;;;;12.00;2.13;;;15.80;99.90;;;;;;4149105;28;20204;-86
2021/08/09 04:00:23;;;;;;;8.30;1.75;;;15.70;99.90;;;;;;4148975;28;20189;-86
2021/08/09 04:02:31;;;;;;;6.18;1.73;;;15.70;99.90;;;;;;4148888;28;20745;-86
2021/08/09 04:04:32;;;;;;;8.18;1.83;;;15.50;99.90;;;;;;4149095;28;20169;-86
2021/08/09 04:06:33;;;;;;;7.40;1.85;;;15.40;99.90;;;;;;4165439;28;20284;-89
2021/08/09 04:08:34;;;;;;;6.20;1.63;;;15.40;99.90;;;;;;4148948;28;20238;-86
2021/08/09 04:10:35;;;;;;;8.35;2.00;;;15.50;99.90;;;;;;4165336;28;20595;-87
2021/08/09 04:12:36;;;;;;;8.65;2.20;;;15.50;99.90;;;;;;4148671;28;20181;-86
2021/08/09 04:14:37;;;;;;;4.50;1.65;;;15.60;99.90;;;;;;4181608;28;20505;-86
2021/08/09 04:16:38;;;;;;;6.75;1.90;;;15.50;99.90;;;;;;4148617;28;20283;-87
2021/08/09 04:18:39;;;;;;;15.80;2.20;;;15.50;99.90;;;;;;4148838;28;20173;-87
2021/08/09 04:20:40;;;;;;;7.18;1.85;;;15.40;99.90;;;;;;4148775;28;20179;-86
2021/08/09 04:22:42;;;;;;;10.65;2.10;;;15.40;99.90;;;;;;4148644;28;20633;-87
2021/08/09 04:24:43;;;;;;;12.57;1.95;;;15.30;99.90;;;;;;4148576;28;20213;-87
2021/08/09 04:26:45;;;;;;;5.70;1.95;;;15.30;99.90;;;;;;4164828;28;20188;-87
2021/08/09 04:28:47;;;;;;;5.43;1.88;;;15.40;99.90;;;;;;4165085;28;20628;-86
2021/08/09 04:30:48;;;;;;;3.80;2.00;;;15.50;99.90;;;;;;4164897;28;20227;-89
2021/08/09 04:32:49;;;;;;;6.05;1.67;;;15.50;99.90;;;;;;4148617;28;20177;-88
2021/08/09 04:34:51;;;;;;;9.48;2.10;;;15.50;99.90;;;;;;4148569;28;20200;-86
2021/08/09 04:36:52;;;;;;;10.85;2.28;;;15.40;99.90;;;;;;4165013;28;20660;-87
2021/08/09 04:38:53;;;;;;;7.82;2.10;;;15.30;99.90;;;;;;4164606;28;20172;-87
2021/08/09 04:40:53;;;;;;;9.32;2.15;;;15.30;99.90;;;;;;4164534;28;20242;-87
2021/08/09 04:42:54;;;;;;;7.65;2.13;;;15.30;99.90;;;;;;4148439;28;20208;-87
2021/08/09 04:44:56;;;;;;;10.35;2.10;;;15.30;99.90;;;;;;4164558;28;20164;-86
2021/08/09 04:46:59;;;;;;;12.30;2.30;;;15.20;99.90;;;;;;4148387;28;20269;-87
2021/08/09 04:49:00;;;;;;;8.23;2.00;;;15.20;99.90;;;;;;4164978;28;20171;-87
2021/08/09 04:51:02;;;;;;;10.52;1.90;;;15.20;99.90;;;;;;4148280;28;20209;-86
2021/08/09 04:53:03;;;;;;;5.45;2.10;;;15.10;99.90;;;;;;4148047;28;20179;-86
2021/08/09 04:55:06;;;;;;;6.15;1.90;;;15.10;99.90;;;;;;4148205;28;20188;-88
2021/08/09 04:57:08;;;;;;;6.63;1.90;;;15.10;99.90;;;;;;4164540;28;20314;-87
2021/08/09 04:59:08;;;;;;;12.50;3.05;;;15.10;99.90;;;;;;4148416;28;20264;-87
2021/08/09 05:01:10;;;;;;;9.90;2.25;;;15.10;99.90;;;;;;4164716;28;20196;-86
2021/08/09 05:03:11;;;;;;;12.23;2.20;;;15.10;99.90;;;;;;4164595;28;20687;-86
2021/08/09 05:05:12;;;;;;;6.60;2.00;;;15.10;99.90;;;;;;4148377;28;20200;-87
2021/08/09 05:07:14;;;;;;;6.18;2.00;;;15.20;99.90;;;;;;4164475;28;20164;-87
2021/08/09 05:09:15;;;;;;;5.65;1.90;;;15.20;99.90;;;;;;4148397;28;20176;-86
2021/08/09 05:11:16;;;;;;;10.50;2.10;;;15.10;99.90;;;;;;4164568;28;20307;-89
2021/08/09 05:13:17;;;;;;;5.20;2.10;;;15.10;99.90;;;;;;4148438;28;20172;-88
2021/08/09 05:15:20;;;;;;;7.20;2.03;;;14.90;99.90;;;;;;4164705;28;20188;-89
2021/08/09 05:17:21;;;;;;;5.75;2.03;;;14.90;99.90;;;;;;4164380;28;20314;-87
2021/08/09 05:19:22;;;;;;;7.60;2.38;;;15.00;99.90;;;;;;4147960;28;20675;-86
2021/08/09 05:21:22;;;;;;;7.05;2.05;;;15.10;99.90;;;;;;4164603;28;20259;-86
2021/08/09 05:23:24;;;;;;;9.32;2.40;;;15.10;99.90;;;;;;4164293;28;20186;-86
2021/08/09 05:25:25;;;;;;;7.72;2.33;;;15.20;99.90;;;;;;4164364;28;20208;-86
2021/08/09 05:27:27;;;;;;;4.88;2.13;;;15.20;99.90;;;;;;4148023;28;20169;-86
2021/08/09 05:29:27;;;;;;;7.00;2.42;;;15.20;99.90;;;;;;4164285;28;20179;-86
2021/08/09 05:31:28;;;;;;;13.18;2.45;;;15.20;99.90;;;;;;4164410;28;20728;-86
2021/08/09 05:33:30;;;;;;;7.70;2.65;;;15.20;99.90;;;;;;4148161;28;20234;-86
2021/08/09 05:35:30;;;;;;;9.32;2.65;;;15.30;99.90;;;;;;4147986;28;20201;-88
2021/08/09 05:37:32;;;;;;;9.68;2.60;;;15.40;99.90;;;;;;4163867;28;20653;-86
2021/08/09 05:39:35;;;;;;;10.40;3.00;;;15.50;99.90;;;;;;4147737;28;20732;-86
2021/08/09 05:41:36;;;;;;;10.80;2.95;;;15.40;99.90;;;;;;4163966;28;20177;-86
2021/08/09 05:43:37;;;;;;;11.05;3.30;;;15.60;99.90;;;;;;4165182;28;20168;-86
2021/08/09 05:45:38;;;;;;;11.35;3.67;;;15.60;99.90;;;;;;4147523;28;20692;-88
2021/08/09 05:47:39;;;;;;;8.93;3.42;;;15.70;99.90;;;;;;4163837;28;20226;-86
2021/08/09 05:49:42;;;;;;;9.55;3.25;;;15.80;99.90;;;;;;4164189;28;20583;-86
2021/08/09 05:51:43;;;;;;;11.65;3.55;;;15.80;99.90;;;;;;4149688;28;20211;-88
2021/08/09 05:53:44;;;;;;;5.72;3.22;;;15.80;99.90;;;;;;4167018;28;20274;-86
2021/08/09 05:55:45;;;;;;;7.95;3.70;;;15.80;99.90;;;;;;4150592;28;20200;-86
2021/08/09 05:57:46;;;;;;;31.30;3.25;;;16.10;99.90;;;;;;4167323;28;20263;-86
2021/08/09 05:59:47;;;;;;;11.25;3.13;;;16.10;99.90;;;;;;4151020;28;20172;-86
2021/08/09 06:01:50;;;;;;;8.68;2.92;;;16.20;99.90;;;;;;4150873;28;20189;-86
2021/08/09 06:03:53;;;;;;;10.65;3.50;;;16.20;99.90;;;;;;4151134;28;20183;-86
2021/08/09 06:05:54;;;;;;;8.57;3.10;;;16.30;99.90;;;;;;4167128;28;20254;-86
2021/08/09 06:07:59;;;;;;;9.75;3.25;;;16.20;99.90;;;;;;4167146;28;20180;-86
2021/08/09 06:10:00;;;;;;;15.77;3.72;;;16.30;99.90;;;;;;4167023;28;20722;-89
2021/08/09 06:12:01;;;;;;;13.68;3.35;;;16.30;99.90;;;;;;4166934;28;20266;-88
2021/08/09 06:14:02;;;;;;;11.43;3.20;;;16.20;99.90;;;;;;4166835;28;20644;-86
2021/08/09 06:16:03;;;;;;;8.43;3.63;;;16.20;99.90;;;;;;4150577;28;20221;-86
2021/08/09 06:18:05;;;;;;;13.18;3.17;;;16.20;99.90;;;;;;4167319;28;20540;-88
2021/08/09 06:20:07;;;;;;;12.45;3.33;;;16.20;99.90;;;;;;4166844;28;20201;-90
2021/08/09 06:22:09;;;;;;;12.18;3.83;;;16.20;99.90;;;;;;4166896;28;20263;-87
2021/08/09 06:24:17;;;;;;;16.35;3.67;;;16.20;99.90;;;;;;4151260;28;20591;-88
2021/08/09 06:26:20;;;;;;;9.38;3.28;;;16.40;99.90;;;;;;4166728;28;20202;-86
2021/08/09 06:28:22;;;;;;;8.95;3.67;;;16.50;99.90;;;;;;4166747;28;20172;-86
2021/08/09 06:30:23;;;;;;;16.30;3.65;;;16.50;99.90;;;;;;4166807;28;20686;-86
2021/08/09 06:32:25;;;;;;;12.77;3.85;;;16.50;99.90;;;;;;4150093;28;20211;-86
2021/08/09 06:34:26;;;;;;;10.40;3.40;;;16.50;99.90;;;;;;4150361;28;20169;-86
2021/08/09 06:36:27;;;;;;;12.98;3.75;;;16.40;99.90;;;;;;4150128;28;20185;-88
2021/08/09 06:38:28;;;;;;;10.98;3.45;;;16.40;99.90;;;;;;4150254;28;20641;-86
2021/08/09 06:40:29;;;;;;;7.38;3.17;;;16.50;99.90;;;;;;4150226;28;20196;-85
2021/08/09 06:42:31;;;;;;;9.90;3.50;;;16.60;99.90;;;;;;4150226;28;20177;-86
2021/08/09 06:44:50;;;;;;;8.98;3.00;;;16.70;99.90;;;;;;4166771;28;20198;-86
2021/08/09 06:46:51;;;;;;;11.52;3.45;;;16.80;99.90;;;;;;4182736;28;20199;-85
2021/08/09 06:48:54;;;;;;;8.70;2.63;;;16.80;99.90;;;;;;4150275;28;20641;-86
2021/08/09 06:50:55;;;;;;;10.82;2.78;;;16.80;99.90;;;;;;4150027;28;20262;-88
2021/08/09 06:52:56;;;;;;;9.68;2.58;;;16.90;99.90;;;;;;4166447;28;20641;-86
2021/08/09 06:55:01;;;;;;;8.80;2.47;;;17.10;99.90;;;;;;4149877;28;20551;-85
2021/08/09 06:57:06;;;;;;;13.40;2.70;;;17.00;99.90;;;;;;4150265;28;20191;-88
2021/08/09 06:59:07;;;;;;;9.60;2.65;;;17.10;99.90;;;;;;4149984;28;20222;-85
2021/08/09 07:01:08;;;;;;;9.80;2.30;;;17.20;99.90;;;;;;4166129;28;20204;-85
2021/08/09 07:03:09;;;;;;;9.32;2.42;;;17.10;99.90;;;;;;4165821;28;20164;-85
2021/08/09 07:05:11;;;;;;;7.88;2.33;;;17.20;99.90;;;;;;4165966;28;20200;-86
2021/08/09 07:07:16;;;;;;;7.22;2.20;;;17.40;99.90;;;;;;4166359;28;20183;-86
2021/08/09 07:09:17;;;;;;;6.10;2.03;;;17.40;99.90;;;;;;4149698;28;20525;-86
2021/08/09 07:11:18;;;;;;;6.70;1.75;;;17.40;99.90;;;;;;4166030;28;20215;-85
2021/08/09 07:13:21;;;;;;;8.98;2.30;;;17.40;99.90;;;;;;4149732;28;20176;-85
2021/08/09 07:15:22;;;;;;;8.13;2.00;;;17.50;99.90;;;;;;4149607;28;20223;-86
2021/08/09 07:17:23;;;;;;;7.10;1.90;;;17.50;99.90;;;;;;4165902;28;20171;-85
2021/08/09 07:19:24;;;;;;;11.40;1.77;;;17.40;99.90;;;;;;4149468;28;20173;-86
2021/08/09 07:21:26;;;;;;;7.15;1.88;;;17.70;99.90;;;;;;4149453;28;20169;-85
2021/08/09 07:23:29;;;;;;;3.72;1.30;;;17.90;99.90;;;;;;4149499;28;20177;-86
2021/08/09 07:25:32;;;;;;;8.10;1.60;;;18.10;99.90;;;;;;4149218;28;20192;-85
2021/08/09 07:27:33;;;;;;;11.75;1.73;;;18.40;99.90;;;;;;4149321;28;20259;-85
2021/08/09 07:29:34;;;;;;;6.15;1.35;;;18.40;99.90;;;;;;4149484;28;20173;-85
2021/08/09 07:31:35;;;;;;;4.18;1.30;;;18.30;99.90;;;;;;4165669;28;20702;-85
2021/08/09 07:33:37;;;;;;;8.77;1.50;;;18.20;99.90;;;;;;4165601;28;20662;-85
2021/08/09 07:35:38;;;;;;;4.90;1.35;;;17.90;99.90;;;;;;4165375;28;20734;-85
2021/08/09 07:37:38;;;;;;;10.18;1.30;;;17.80;99.90;;;;;;4148827;28;20173;-85
2021/08/09 07:39:39;;;;;;;6.65;1.48;;;17.80;99.90;;;;;;4166541;28;20560;-86
2021/08/09 07:41:41;;;;;;;9.68;1.45;;;17.70;99.90;;;;;;4166203;28;20226;-85
2021/08/09 07:43:42;;;;;;;7.03;1.20;;;17.50;99.90;;;;;;4166748;28;20172;-85
2021/08/09 07:45:43;;;;;;;8.32;1.35;;;17.50;99.90;;;;;;4149429;28;20192;-84
2021/08/09 07:47:45;;;;;;;6.18;1.55;;;17.70;99.90;;;;;;4148904;28;20207;-89
2021/08/09 07:49:45;;;;;;;6.18;1.63;;;17.70;99.90;;;;;;4149039;28;20173;-85
2021/08/09 07:51:46;;;;;;;4.95;1.20;;;17.90;99.90;;;;;;4148836;28;20220;-84
2021/08/09 07:53:47;;;;;;;8.23;1.60;;;17.90;99.90;;;;;;4165322;28;20176;-84
2021/08/09 07:55:48;;;;;;;8.32;1.50;;;17.80;99.90;;;;;;4148577;28;20191;-85
2021/08/09 07:57:48;;;;;;;7.18;1.20;;;17.90;99.90;;;;;;4165468;28;20331;-85
2021/08/09 07:59:53;;;;;;;10.75;1.42;;;18.10;99.90;;;;;;4165250;28;20545;-85
2021/08/09 08:01:53;;;;;;;8.65;1.33;;;18.00;99.90;;;;;;4165164;28;20164;-85
2021/08/09 08:03:54;;;;;;;7.80;1.33;;;17.70;99.90;;;;;;4165133;28;20199;-85
2021/08/09 08:05:56;;;;;;;9.88;1.60;;;17.70;99.90;;;;;;4165050;28;20195;-85
2021/08/09 08:07:57;;;;;;;5.53;1.35;;;17.60;99.90;;;;;;4165096;28;20536;-85
2021/08/09 08:10:01;;;;;;;6.70;1.70;;;17.50;99.90;;;;;;4165092;28;20172;-85
2021/08/09 08:12:03;;;;;;;8.27;1.23;;;17.50;99.90;;;;;;4164956;28;20676;-85
2021/08/09 08:14:04;;;;;;;4.97;1.45;;;17.40;99.90;;;;;;4164167;28;20251;-85
2021/08/09 08:16:05;;;;;;;8.45;1.40;;;17.40;99.90;;;;;;4164731;28;20203;-86
2021/08/09 08:18:06;;;;;;;7.47;1.77;;;17.30;99.90;;;;;;4148291;28;20239;-85
2021/08/09 08:20:10;;;;;;;7.10;1.50;;;17.50;99.90;;;;;;4148682;28;20168;-85
2021/08/09 08:22:11;;;;;;;5.88;1.40;;;17.70;99.90;;;;;;4164823;28;20257;-87
2021/08/09 08:24:15;;;;;;;9.00;1.40;;;17.90;99.90;;;;;;4165219;28;20188;-85
2021/08/09 08:26:16;;;;;;;7.78;1.73;;;18.20;99.90;;;;;;4164900;28;20199;-85
2021/08/09 08:28:17;;;;;;;5.35;1.55;;;18.60;99.90;;;;;;4148583;28;20514;-85
2021/08/09 08:30:19;;;;;;;7.57;1.67;;;19.00;99.90;;;;;;4148349;28;20216;-85
2021/08/09 08:32:20;;;;;;;7.50;1.50;;;19.20;99.90;;;;;;4148094;28;20604;-86
2021/08/09 08:34:21;;;;;;;5.65;1.00;;;19.40;99.90;;;;;;4164604;28;20191;-86
2021/08/09 08:36:23;;;;;;;4.88;1.42;;;19.80;99.90;;;;;;4148442;28;20185;-85
2021/08/09 08:38:24;;;;;;;9.43;1.60;;;19.60;99.90;;;;;;4164276;28;20596;-86
2021/08/09 08:40:25;;;;;;;7.10;1.48;;;19.50;99.90;;;;;;4148107;28;20184;-86
2021/08/09 08:42:26;;;;;;;8.05;1.30;;;19.50;99.90;;;;;;4164580;28;20532;-85
2021/08/09 08:44:27;;;;;;;7.38;1.80;;;19.50;99.90;;;;;;4164589;28;20207;-85
2021/08/09 08:46:28;;;;;;;6.70;1.50;;;19.40;99.90;;;;;;4164446;28;20366;-85
2021/08/09 08:48:31;;;;;;;5.13;1.25;;;19.50;99.90;;;;;;4148213;28;20180;-85
2021/08/09 08:50:34;;;;;;;6.45;1.52;;;19.60;99.90;;;;;;4164334;28;20671;-85
2021/08/09 08:52:41;;;;;;;4.57;1.10;;;19.30;99.90;;;;;;4148046;28;20554;-85
2021/08/09 08:54:43;;;;;;;7.97;1.83;;;19.20;99.90;;;;;;4148220;28;20172;-86
2021/08/09 08:56:45;;;;;;;7.68;1.50;;;19.30;99.90;;;;;;4164399;28;20192;-85
2021/08/09 08:58:46;;;;;;;6.75;1.65;;;19.10;99.90;;;;;;4148089;28;20173;-85
2021/08/09 09:00:48;;;;;;;4.60;1.45;;;19.40;99.90;;;;;;4147649;28;20176;-85
2021/08/09 09:02:49;;;;;;;6.18;1.55;;;19.70;99.90;;;;;;4164185;28;20271;-85
2021/08/09 09:04:50;;;;;;;6.15;1.40;;;19.50;99.90;;;;;;4147916;28;20585;-85
2021/08/09 09:07:04;;;;;;;5.28;1.38;;;19.50;99.90;;;;;;4147797;28;20565;-85
2021/08/09 09:09:22;;;;;;;8.38;1.55;;;19.10;99.90;;;;;;4164059;28;20172;-84
2021/08/09 09:11:23;;;;;;;4.45;1.17;;;19.00;99.90;;;;;;4164236;28;20207;-85
2021/08/09 09:13:24;;;;;;;7.90;1.38;;;18.60;99.90;;;;;;4163964;28;20223;-85
2021/08/09 09:15:25;;;;;;;7.40;1.67;;;18.50;99.90;;;;;;4147602;28;20576;-85
2021/08/09 09:17:39;;;;;;;5.63;1.30;;;18.50;99.90;;;;;;4164407;28;20537;-85
2021/08/09 09:19:45;;;;;;;8.50;1.80;;;18.70;99.90;;;;;;4147852;28;20175;-85
2021/08/09 09:21:46;;;;;;;5.47;1.30;;;18.80;99.90;;;;;;4164571;28;20164;-85
2021/08/09 09:23:47;;;;;;;10.23;1.60;;;19.20;99.90;;;;;;4164172;28;20183;-85
2021/08/09 09:25:49;;;;;;;7.00;1.67;;;19.40;99.90;;;;;;4148696;28;20292;-85
2021/08/09 09:27:50;;;;;;;6.68;1.30;;;19.50;99.90;;;;;;4167657;28;20180;-88
2021/08/09 09:29:51;;;;;;;4.95;1.27;;;19.90;99.90;;;;;;4167385;28;20254;-85
2021/08/09 09:31:53;;;;;;;7.43;1.27;;;20.00;99.90;;;;;;4150749;28;20217;-85
2021/08/09 09:33:54;;;;;;;2.88;1.00;;;19.80;99.90;;;;;;4167376;28;20641;-85
2021/08/09 09:35:55;;;;;;;8.60;1.38;;;19.80;99.90;;;;;;4167352;28;20203;-85
2021/08/09 09:37:56;;;;;;;6.72;1.38;;;19.70;99.90;;;;;;4167571;28;20172;-84
2021/08/09 09:40:22;;;;;;;5.13;1.10;;;19.50;99.90;;;;;;4168015;28;20190;-84
2021/08/09 09:42:33;;;;;;;5.68;1.20;;;19.20;99.90;;;;;;4147948;28;20220;-86
2021/08/09 09:44:37;;;;;;;5.13;1.23;;;19.10;99.90;;;;;;4167278;28;20274;-84
2021/08/09 09:46:44;;;;;;;9.10;1.23;;;19.10;99.90;;;;;;4167036;28;20224;-85
2021/08/09 09:48:45;;;;;;;4.10;1.15;;;19.20;99.90;;;;;;4167105;28;20203;-85
2021/08/09 09:50:45;;;;;;;8.75;1.50;;;19.40;99.90;;;;;;4166852;28;20223;-84
2021/08/09 09:52:47;;;;;;;5.85;1.45;;;19.50;99.90;;;;;;4167016;28;20206;-85
2021/08/09 09:54:49;;;;;;;5.75;1.27;;;19.50;99.90;;;;;;4150423;28;20176;-85
2021/08/09 09:56:50;;;;;;;7.97;1.77;;;19.60;99.90;;;;;;4166932;28;20192;-84
2021/08/09 09:58:55;;;;;;;5.70;1.10;;;19.80;99.90;;;;;;4150568;28;20268;-84
2021/08/09 10:01:00;;;;;;;7.93;1.58;;;20.00;99.90;;;;;;4166853;28;20169;-85
2021/08/09 10:03:01;;;;;;;7.32;1.60;;;20.40;99.90;;;;;;4166632;28;20259;-85
2021/08/09 10:05:04;;;;;;;7.80;1.70;;;20.60;99.90;;;;;;4150367;28;20185;-85
2021/08/09 10:07:07;;;;;;;11.77;1.85;;;20.80;99.90;;;;;;4150463;28;20256;-86
2021/08/09 10:09:10;;;;;;;7.35;1.70;;;21.00;99.90;;;;;;4150241;28;20181;-87
2021/08/09 10:11:13;;;;;;;7.68;1.40;;;21.00;99.90;;;;;;4167977;28;20679;-85
2021/08/09 10:13:17;;;;;;;6.05;1.58;;;21.30;99.90;;;;;;4167882;28;20175;-85
2021/08/09 10:15:20;;;;;;;3.63;1.05;;;21.80;99.90;;;;;;4167671;28;20219;-85
2021/08/09 10:17:25;;;;;;;4.15;1.00;;;22.00;99.90;;;;;;4149955;28;20223;-85
2021/08/09 10:19:26;;;;;;;3.95;1.25;;;21.80;99.90;;;;;;4166611;28;20751;-84
2021/08/09 10:21:32;;;;;;;4.95;1.20;;;21.50;99.90;;;;;;4166461;28;20172;-85
2021/08/09 10:23:47;;;;;;;4.72;1.33;;;21.50;99.90;;;;;;4167549;28;20185;-84
2021/08/09 10:25:50;;;;;;;5.68;1.25;;;21.60;99.90;;;;;;4166488;28;20180;-85
2021/08/09 10:27:53;;;;;;;4.60;1.30;;;21.60;99.90;;;;;;4183000;28;20186;-85
2021/08/09 10:29:59;;;;;;;16.15;1.77;;;21.60;99.90;;;;;;4182957;28;20233;-84
2021/08/09 10:32:26;;;;;;;5.78;1.30;;;21.70;99.90;;;;;;4167316;28;20204;-85
2021/08/09 10:34:38;;;;;;;7.10;1.67;;;21.90;99.90;;;;;;4163830;28;20188;-85
2021/08/09 10:37:06;;;;;;;4.57;1.40;;;21.80;99.90;;;;;;4182414;28;20195;-84